createdAt,value
2022-11-17T00:00:43.278Z,9.60
2022-11-17T00:03:15.922Z,9.50
2022-11-17T00:05:44.862Z,9.50
2022-11-17T00:08:12.459Z,9.60
2022-11-17T00:10:39.785Z,9.60
2022-11-17T00:13:25.812Z,9.60
2022-11-17T00:15:53.126Z,9.60
2022-11-17T00:18:39.323Z,9.60
2022-11-17T00:21:21.650Z,9.60
2022-11-17T00:23:50.727Z,9.60
2022-11-17T00:26:21.943Z,9.50
2022-11-17T00:29:00.275Z,9.50
2022-11-17T00:31:48.824Z,9.50
2022-11-17T00:34:22.639Z,9.50
2022-11-17T00:36:53.419Z,9.50
2022-11-17T00:39:23.641Z,9.50
2022-11-17T00:41:51.232Z,9.60
2022-11-17T00:44:19.022Z,9.60
2022-11-17T00:46:46.322Z,9.60
2022-11-17T00:49:14.855Z,9.60
2022-11-17T00:51:42.606Z,9.60
2022-11-17T00:54:13.495Z,9.50
2022-11-17T00:56:41.361Z,9.50
2022-11-17T00:59:08.625Z,9.50
2022-11-17T01:01:37.265Z,9.60
2022-11-17T01:04:06.304Z,9.60
2022-11-17T01:06:38.008Z,9.60
2022-11-17T01:09:12.181Z,9.70
2022-11-17T01:11:40.355Z,9.80
2022-11-17T01:14:11.358Z,9.80
2022-11-17T01:16:38.779Z,9.80
2022-11-17T01:19:06.620Z,9.80
2022-11-17T01:21:34.000Z,9.90
2022-11-17T01:24:02.470Z,9.80
2022-11-17T01:26:34.331Z,9.90
2022-11-17T01:29:04.301Z,9.80
2022-11-17T01:31:39.155Z,9.90
2022-11-17T01:34:08.068Z,9.90
2022-11-17T01:36:58.881Z,9.90
2022-11-17T01:39:28.803Z,10.00
2022-11-17T01:41:57.218Z,10.00
2022-11-17T01:44:48.317Z,10.00
2022-11-17T01:47:22.446Z,10.00
2022-11-17T01:49:58.797Z,10.00
2022-11-17T01:52:29.632Z,10.00
2022-11-17T01:55:00.291Z,10.00
2022-11-17T01:58:02.245Z,10.00
2022-11-17T02:00:30.523Z,10.00
2022-11-17T02:02:58.580Z,10.10
2022-11-17T02:05:48.670Z,10.10
2022-11-17T02:08:19.355Z,10.10
2022-11-17T02:10:51.590Z,10.10
2022-11-17T02:13:21.946Z,10.10
2022-11-17T02:15:49.513Z,10.10
2022-11-17T02:18:17.949Z,10.00
2022-11-17T02:21:29.582Z,10.00
2022-11-17T02:24:36.792Z,9.90
2022-11-17T02:27:56.612Z,9.90
2022-11-17T02:30:24.512Z,9.90
2022-11-17T02:33:45.073Z,9.90
2022-11-17T02:36:32.346Z,9.90
2022-11-17T02:39:20.403Z,9.80
2022-11-17T02:42:14.366Z,9.90
2022-11-17T02:45:02.890Z,9.90
2022-11-17T02:47:36.128Z,9.90
2022-11-17T02:50:10.814Z,9.90
2022-11-17T02:52:38.518Z,9.90
2022-11-17T02:55:10.806Z,9.90
2022-11-17T02:57:41.067Z,9.90
2022-11-17T03:00:13.337Z,10.00
2022-11-17T03:03:14.177Z,9.90
2022-11-17T03:06:07.307Z,10.00
2022-11-17T03:09:21.175Z,9.90
2022-11-17T03:12:36.786Z,9.90
2022-11-17T03:15:22.059Z,9.90
2022-11-17T03:18:09.163Z,9.80
2022-11-17T03:21:27.734Z,9.70
2022-11-17T03:24:21.392Z,9.70
2022-11-17T03:27:15.570Z,9.70
2022-11-17T03:29:49.746Z,9.70
2022-11-17T03:32:19.478Z,9.70
2022-11-17T03:34:55.614Z,9.70
2022-11-17T03:37:25.413Z,9.80
2022-11-17T03:40:03.554Z,9.80
2022-11-17T03:42:36.677Z,9.80
2022-11-17T03:45:11.402Z,9.90
2022-11-17T03:47:39.931Z,9.90
2022-11-17T03:50:33.264Z,9.90
2022-11-17T03:53:04.828Z,9.90
2022-11-17T03:56:08.122Z,10.00
2022-11-17T03:59:01.051Z,10.00
2022-11-17T04:01:32.353Z,10.00
2022-11-17T04:04:00.629Z,10.00
2022-11-17T04:06:28.063Z,10.00
2022-11-17T04:08:55.482Z,10.00
2022-11-17T04:11:41.133Z,10.10
2022-11-17T04:14:27.959Z,10.00
2022-11-17T04:16:55.210Z,10.00
2022-11-17T04:19:22.522Z,10.00
2022-11-17T04:21:51.178Z,10.00
2022-11-17T04:24:18.553Z,10.00
2022-11-17T04:27:04.226Z,9.90
2022-11-17T04:29:31.508Z,9.90
2022-11-17T04:31:58.743Z,9.90
2022-11-17T04:34:26.154Z,9.90
2022-11-17T04:36:53.533Z,9.90
2022-11-17T04:39:20.951Z,9.90
2022-11-17T04:41:54.226Z,9.90
2022-11-17T04:44:27.724Z,9.90
2022-11-17T04:46:56.350Z,9.90
2022-11-17T04:49:26.358Z,9.90
2022-11-17T04:51:54.222Z,9.90
2022-11-17T04:54:24.720Z,9.90
2022-11-17T04:56:53.642Z,9.90
2022-11-17T04:59:21.458Z,9.90
2022-11-17T05:01:50.762Z,9.90
2022-11-17T05:04:39.988Z,9.90
2022-11-17T05:07:08.994Z,9.90
2022-11-17T05:09:36.643Z,9.90
2022-11-17T05:12:22.631Z,9.90
2022-11-17T05:14:50.607Z,9.90
2022-11-17T05:17:18.368Z,10.00
2022-11-17T05:19:48.646Z,10.00
2022-11-17T05:22:41.884Z,10.00
2022-11-17T05:25:10.292Z,10.00
2022-11-17T05:27:37.814Z,10.00
2022-11-17T05:30:07.561Z,10.00
2022-11-17T05:32:35.249Z,10.00
2022-11-17T05:35:02.542Z,10.00
2022-11-17T05:37:29.831Z,9.90
2022-11-17T05:39:57.094Z,9.90
2022-11-17T05:42:24.349Z,9.90
2022-11-17T05:44:51.650Z,9.90
2022-11-17T05:47:18.888Z,9.90
2022-11-17T05:49:46.187Z,9.90
2022-11-17T05:52:13.562Z,9.80
2022-11-17T05:54:40.837Z,9.80
2022-11-17T05:57:29.663Z,9.80
2022-11-17T06:00:04.713Z,9.90
2022-11-17T06:03:02.299Z,9.90
2022-11-17T06:05:29.587Z,9.90
2022-11-17T06:07:59.772Z,10.00
2022-11-17T06:10:28.106Z,10.00
2022-11-17T06:12:55.355Z,10.00
2022-11-17T06:15:22.825Z,10.00
2022-11-17T06:18:11.174Z,10.00
2022-11-17T06:20:45.602Z,10.10
2022-11-17T06:23:13.094Z,10.00
2022-11-17T06:25:40.658Z,10.00
2022-11-17T06:28:16.749Z,10.00
2022-11-17T06:30:44.787Z,10.00
2022-11-17T06:33:16.969Z,10.00
2022-11-17T06:35:46.643Z,10.00
2022-11-17T06:38:13.975Z,9.90
2022-11-17T06:40:41.256Z,9.90
2022-11-17T06:43:09.503Z,9.90
2022-11-17T06:45:45.103Z,9.90
2022-11-17T06:48:17.874Z,9.90
2022-11-17T06:50:45.184Z,10.00
2022-11-17T06:53:13.134Z,9.90
2022-11-17T06:55:40.657Z,10.00
2022-11-17T06:58:13.046Z,10.00
2022-11-17T07:00:40.522Z,10.10
2022-11-17T07:03:10.959Z,10.00
2022-11-17T07:05:40.415Z,10.00
2022-11-17T07:08:09.453Z,10.00
2022-11-17T07:10:41.653Z,10.00
2022-11-17T07:13:12.313Z,10.10
2022-11-17T07:15:39.716Z,10.10
2022-11-17T07:18:06.998Z,10.10
2022-11-17T07:20:34.276Z,10.20
2022-11-17T07:23:01.576Z,10.10
2022-11-17T07:25:28.861Z,10.10
2022-11-17T07:28:00.432Z,10.10
2022-11-17T07:30:27.972Z,10.20
2022-11-17T07:32:55.270Z,10.30
2022-11-17T07:35:24.047Z,10.40
2022-11-17T07:37:51.430Z,10.50
2022-11-17T07:40:19.438Z,10.50
2022-11-17T07:42:50.127Z,10.70
2022-11-17T07:45:17.669Z,10.70
2022-11-17T07:47:44.914Z,10.60
2022-11-17T07:50:12.381Z,10.60
2022-11-17T07:52:41.610Z,10.70
2022-11-17T07:55:09.562Z,10.70
2022-11-17T07:57:36.929Z,10.70
2022-11-17T08:00:05.008Z,10.70
2022-11-17T08:02:32.301Z,10.80
2022-11-17T08:04:59.717Z,10.80
2022-11-17T08:07:26.952Z,10.90
2022-11-17T08:09:54.426Z,10.90
2022-11-17T08:12:21.833Z,10.90
2022-11-17T08:14:49.902Z,10.90
2022-11-17T08:17:17.621Z,10.80
2022-11-17T08:19:44.877Z,10.70
2022-11-17T08:22:12.116Z,10.70
2022-11-17T08:24:39.788Z,10.70
2022-11-17T08:27:07.415Z,10.80
2022-11-17T08:29:34.709Z,10.90
2022-11-17T08:32:02.019Z,11.00
2022-11-17T08:34:29.315Z,11.10
2022-11-17T08:36:56.712Z,11.00
2022-11-17T08:39:23.978Z,11.10
2022-11-17T08:41:52.508Z,11.10
2022-11-17T08:44:19.792Z,11.20
2022-11-17T08:46:47.392Z,11.20
2022-11-17T08:49:15.299Z,11.20
2022-11-17T08:51:42.656Z,11.30
2022-11-17T08:54:12.604Z,11.30
2022-11-17T08:56:40.359Z,11.40
2022-11-17T08:59:09.490Z,11.50
2022-11-17T09:01:39.771Z,11.60
2022-11-17T09:04:07.109Z,11.70
2022-11-17T09:06:34.358Z,11.80
2022-11-17T09:09:02.146Z,11.80
2022-11-17T09:11:29.796Z,11.90
2022-11-17T09:13:59.499Z,12.00
2022-11-17T09:16:27.056Z,12.00
2022-11-17T09:18:57.025Z,12.10
2022-11-17T09:21:26.395Z,12.10
2022-11-17T09:23:54.603Z,11.90
2022-11-17T09:26:22.636Z,11.80
2022-11-17T09:28:49.999Z,11.80
2022-11-17T09:31:21.299Z,11.80
2022-11-17T09:33:49.462Z,11.90
2022-11-17T09:36:20.171Z,11.80
2022-11-17T09:38:48.090Z,11.60
2022-11-17T09:41:31.656Z,11.50
2022-11-17T09:44:41.596Z,11.40
2022-11-17T09:55:47.808Z,11.60
2022-11-17T09:58:35.065Z,12.00
2022-11-17T10:01:02.926Z,12.10
2022-11-17T10:03:36.421Z,12.20
2022-11-17T10:06:33.786Z,12.20
2022-11-17T10:09:07.110Z,12.30
2022-11-17T10:11:39.339Z,12.40
2022-11-17T10:14:10.819Z,12.50
2022-11-17T10:16:42.539Z,12.60
2022-11-17T10:19:22.229Z,12.60
2022-11-17T10:22:33.561Z,12.70
2022-11-17T10:25:00.852Z,12.70
2022-11-17T10:27:34.343Z,12.60
2022-11-17T10:30:26.359Z,12.50
2022-11-17T10:33:00.124Z,12.60
2022-11-17T10:35:34.597Z,12.60
2022-11-17T10:38:19.139Z,12.60
2022-11-17T10:40:53.530Z,12.70
2022-11-17T10:43:32.439Z,12.90
2022-11-17T10:46:13.263Z,13.00
2022-11-17T10:49:02.130Z,13.10
2022-11-17T10:51:34.654Z,13.20
2022-11-17T10:54:23.400Z,13.30
2022-11-17T10:56:58.604Z,13.40
2022-11-17T10:59:31.845Z,13.40
2022-11-17T11:02:30.157Z,13.40
2022-11-17T11:05:20.706Z,13.50
2022-11-17T11:07:48.388Z,13.40
2022-11-17T11:10:39.219Z,13.40
2022-11-17T11:13:28.195Z,13.30
2022-11-17T11:15:55.616Z,13.30
2022-11-17T11:18:23.442Z,13.30
2022-11-17T11:21:23.447Z,13.10
2022-11-17T11:24:05.610Z,13.00
2022-11-17T11:26:45.101Z,12.90
2022-11-17T11:29:23.730Z,12.80
2022-11-17T11:32:16.715Z,12.90
2022-11-17T11:35:01.028Z,13.00
2022-11-17T11:37:45.789Z,13.10
2022-11-17T11:40:45.951Z,13.10
2022-11-17T11:43:51.277Z,13.20
2022-11-17T11:47:11.662Z,13.20
2022-11-17T11:50:10.287Z,13.20
2022-11-17T11:52:46.007Z,13.10
2022-11-17T11:55:31.511Z,13.00
2022-11-17T11:58:26.401Z,13.00
2022-11-17T12:01:06.495Z,12.90
2022-11-17T12:04:03.694Z,12.90
2022-11-17T12:06:58.144Z,12.90
2022-11-17T12:09:34.444Z,12.80
2022-11-17T12:12:15.964Z,12.80
2022-11-17T12:15:11.884Z,12.80
2022-11-17T12:18:01.169Z,12.90
2022-11-17T12:20:31.508Z,12.80
2022-11-17T12:23:07.955Z,12.80
2022-11-17T12:25:46.844Z,12.80
2022-11-17T12:28:41.479Z,12.80
2022-11-17T12:31:43.561Z,12.70
2022-11-17T12:34:37.232Z,12.60
2022-11-17T12:37:30.262Z,12.50
2022-11-17T12:39:57.855Z,12.50
2022-11-17T12:42:26.388Z,12.40
2022-11-17T12:45:07.080Z,12.40
2022-11-17T12:47:40.551Z,12.30
2022-11-17T12:50:35.953Z,12.20
2022-11-17T12:53:25.105Z,12.20
2022-11-17T12:56:20.000Z,12.10
2022-11-17T12:59:18.049Z,12.10
2022-11-17T13:02:51.845Z,12.10
2022-11-17T13:05:24.098Z,12.10
2022-11-17T13:08:13.879Z,12.10
2022-11-17T13:10:41.909Z,12.10
2022-11-17T13:13:23.974Z,12.10
2022-11-17T13:15:58.925Z,12.00
2022-11-17T13:18:36.487Z,12.00
2022-11-17T13:21:26.846Z,12.00
2022-11-17T13:23:54.825Z,12.00
2022-11-17T13:26:38.455Z,12.00
2022-11-17T13:29:18.527Z,11.90
2022-11-17T13:31:46.819Z,11.80
2022-11-17T13:34:17.415Z,11.80
2022-11-17T13:36:57.356Z,11.70
2022-11-17T13:39:27.933Z,11.70
2022-11-17T13:41:57.936Z,11.60
2022-11-17T13:44:28.527Z,11.60
2022-11-17T13:46:56.319Z,11.60
2022-11-17T13:49:38.178Z,11.60
2022-11-17T13:52:37.992Z,11.60
2022-11-17T13:55:17.931Z,11.60
2022-11-17T13:58:24.477Z,11.40
2022-11-17T14:00:58.019Z,11.30
2022-11-17T14:03:39.927Z,11.20
2022-11-17T14:06:14.492Z,11.20
2022-11-17T14:09:01.453Z,11.20
2022-11-17T14:11:31.636Z,11.10
2022-11-17T14:14:01.393Z,11.00
2022-11-17T14:16:44.523Z,11.00
2022-11-17T14:19:15.024Z,11.10
2022-11-17T14:22:29.516Z,11.00
2022-11-17T14:24:58.960Z,11.00
2022-11-17T14:27:29.824Z,11.00
2022-11-17T14:29:57.114Z,11.10
2022-11-17T14:32:25.181Z,11.00
2022-11-17T14:34:52.586Z,11.00
2022-11-17T14:37:19.854Z,11.10
2022-11-17T14:39:47.279Z,11.00
2022-11-17T14:42:14.702Z,11.00
2022-11-17T14:44:41.910Z,11.00
2022-11-17T14:47:09.228Z,10.90
2022-11-17T14:49:36.422Z,10.90
2022-11-17T14:52:03.881Z,10.80
2022-11-17T14:54:31.265Z,10.70
2022-11-17T14:56:59.797Z,10.60
2022-11-17T14:59:27.212Z,10.50
2022-11-17T15:01:54.883Z,10.40
2022-11-17T15:04:48.802Z,10.30
2022-11-17T15:07:09.535Z,10.30
2022-11-17T15:09:36.884Z,10.20
2022-11-17T15:12:04.412Z,10.10
2022-11-17T15:14:31.699Z,10.00
2022-11-17T15:16:59.019Z,10.00
2022-11-17T15:19:26.334Z,9.90
2022-11-17T15:21:53.825Z,9.80
2022-11-17T15:24:22.099Z,9.80
2022-11-17T15:26:49.365Z,9.80
2022-11-17T15:29:17.115Z,9.80
2022-11-17T15:31:44.729Z,9.80
2022-11-17T15:34:17.129Z,9.80
2022-11-17T15:36:47.704Z,9.80
2022-11-17T15:39:15.849Z,9.80
2022-11-17T15:41:43.733Z,9.80
2022-11-17T15:44:11.245Z,9.80
2022-11-17T15:46:42.913Z,9.80
2022-11-17T15:49:13.593Z,9.70
2022-11-17T15:51:41.052Z,9.70
2022-11-17T15:54:15.087Z,9.60
2022-11-17T15:56:45.691Z,9.60
2022-11-17T15:59:13.045Z,9.70
2022-11-17T16:01:41.198Z,9.70
2022-11-17T16:04:12.201Z,9.70
2022-11-17T16:06:41.838Z,9.70
2022-11-17T16:09:11.996Z,9.70
2022-11-17T16:11:40.096Z,9.70
2022-11-17T16:14:07.599Z,9.70
2022-11-17T16:16:40.520Z,9.70
2022-11-17T16:19:08.101Z,9.70
2022-11-17T16:21:35.517Z,9.70
2022-11-17T16:24:03.391Z,9.70
2022-11-17T16:26:31.412Z,9.80
2022-11-17T16:29:06.007Z,9.80
2022-11-17T16:31:36.241Z,9.80
2022-11-17T16:34:13.503Z,9.70
2022-11-17T16:36:43.521Z,9.70
2022-11-17T16:39:15.687Z,9.70
2022-11-17T16:41:50.734Z,9.60
2022-11-17T16:44:18.676Z,9.60
2022-11-17T16:46:48.746Z,9.60
2022-11-17T16:49:19.830Z,9.50
2022-11-17T16:51:50.360Z,9.50
2022-11-17T16:54:18.742Z,9.50
2022-11-17T16:56:46.182Z,9.50
2022-11-17T16:59:13.893Z,9.60
2022-11-17T17:01:41.647Z,9.60
2022-11-17T17:04:10.843Z,9.60
2022-11-17T17:06:43.774Z,9.60
2022-11-17T17:09:14.217Z,9.70
2022-11-17T17:11:42.558Z,9.70
2022-11-17T17:14:14.397Z,9.70
2022-11-17T17:16:43.041Z,9.80
2022-11-17T17:19:12.589Z,9.80
2022-11-17T17:21:42.233Z,9.80
2022-11-17T17:24:10.681Z,9.80
2022-11-17T17:26:40.235Z,9.80
2022-11-17T17:29:10.718Z,9.80
2022-11-17T17:31:40.924Z,9.80
2022-11-17T17:34:10.747Z,9.80
2022-11-17T17:36:38.678Z,9.80
2022-11-17T17:39:08.058Z,9.70
2022-11-17T17:41:40.905Z,9.70
2022-11-17T17:44:13.355Z,9.70
2022-11-17T17:46:40.732Z,9.70
2022-11-17T17:49:07.996Z,9.70
2022-11-17T17:51:44.445Z,9.60
2022-11-17T17:54:20.950Z,9.60
2022-11-17T17:56:48.884Z,9.60
2022-11-17T17:59:17.243Z,9.60
2022-11-17T18:01:47.390Z,9.60
2022-11-17T18:04:16.572Z,9.60
2022-11-17T18:06:49.037Z,9.70
2022-11-17T18:09:19.248Z,9.70
2022-11-17T18:11:50.569Z,9.70
2022-11-17T18:14:24.756Z,9.70
2022-11-17T18:16:55.228Z,9.70
2022-11-17T18:19:25.876Z,9.70
2022-11-17T18:21:55.747Z,9.70
2022-11-17T18:24:23.048Z,9.70
2022-11-17T18:26:50.433Z,9.70
2022-11-17T18:29:18.928Z,9.60
2022-11-17T18:31:48.419Z,9.60
2022-11-17T18:34:23.046Z,9.60
2022-11-17T18:36:52.567Z,9.50
2022-11-17T18:39:21.397Z,9.50
2022-11-17T18:41:48.803Z,9.40
2022-11-17T18:44:21.179Z,9.40
2022-11-17T18:46:48.880Z,9.30
2022-11-17T18:49:16.525Z,9.30
2022-11-17T18:51:44.273Z,9.30
2022-11-17T18:54:12.762Z,9.30
2022-11-17T18:56:40.263Z,9.20
2022-11-17T18:59:14.683Z,9.20
2022-11-17T19:01:43.380Z,9.10
2022-11-17T19:04:13.809Z,9.20
2022-11-17T19:06:41.912Z,9.20
2022-11-17T19:09:09.743Z,9.10
2022-11-17T19:11:37.412Z,9.10
2022-11-17T19:14:05.746Z,9.10
2022-11-17T19:16:42.509Z,9.20
2022-11-17T19:19:15.990Z,9.10
2022-11-17T19:21:44.377Z,9.10
2022-11-17T19:24:14.136Z,9.00
2022-11-17T19:26:42.849Z,9.00
2022-11-17T19:29:16.760Z,9.00
2022-11-17T19:31:46.341Z,9.00
2022-11-17T19:34:15.393Z,9.00
2022-11-17T19:36:43.050Z,9.00
2022-11-17T19:39:13.015Z,9.00
2022-11-17T19:41:40.290Z,9.00
2022-11-17T19:44:09.470Z,9.00
2022-11-17T19:46:37.815Z,9.00
2022-11-17T19:49:07.798Z,8.90
2022-11-17T19:51:41.107Z,8.80
2022-11-17T19:54:11.772Z,8.80
2022-11-17T19:56:39.177Z,8.80
2022-11-17T19:59:15.250Z,8.70
2022-11-17T20:01:43.945Z,8.70
2022-11-17T20:04:11.543Z,8.70
2022-11-17T20:06:41.020Z,8.60
2022-11-17T20:09:12.257Z,8.60
2022-11-17T20:11:40.755Z,8.60
2022-11-17T20:14:08.516Z,8.50
2022-11-17T20:16:38.578Z,8.50
2022-11-17T20:19:06.615Z,8.50
2022-11-17T20:21:34.887Z,8.50
2022-11-17T20:24:02.778Z,8.50
2022-11-17T20:26:33.436Z,8.50
2022-11-17T20:29:01.296Z,8.50
2022-11-17T20:31:32.130Z,8.50
2022-11-17T20:34:01.514Z,8.40
2022-11-17T20:36:32.787Z,8.40
2022-11-17T20:39:03.826Z,8.40
2022-11-17T20:41:31.488Z,8.40
2022-11-17T20:44:00.742Z,8.40
2022-11-17T20:46:28.288Z,8.40
2022-11-17T20:48:55.899Z,8.30
2022-11-17T20:51:25.362Z,8.30
2022-11-17T20:53:52.835Z,8.30
2022-11-17T20:56:21.260Z,8.30
2022-11-17T20:58:49.033Z,8.30
2022-11-17T21:01:23.135Z,8.20
2022-11-17T21:03:50.662Z,8.20
2022-11-17T21:06:19.825Z,8.20
2022-11-17T21:08:47.160Z,8.10
2022-11-17T21:11:36.576Z,8.10
2022-11-17T21:14:06.485Z,8.00
2022-11-17T21:16:36.828Z,8.00
2022-11-17T21:19:05.343Z,8.00
2022-11-17T21:21:35.752Z,7.90
2022-11-17T21:24:04.083Z,7.90
2022-11-17T21:26:35.891Z,7.90
2022-11-17T21:29:06.809Z,7.80
2022-11-17T21:31:35.905Z,7.80
2022-11-17T21:34:06.538Z,7.70
2022-11-17T21:36:36.174Z,7.70
2022-11-17T21:39:04.588Z,7.70
2022-11-17T21:41:35.524Z,7.70
2022-11-17T21:44:04.285Z,7.70
2022-11-17T21:46:35.369Z,7.60
2022-11-17T21:49:02.961Z,7.60
2022-11-17T21:51:34.362Z,7.60
2022-11-17T21:54:05.261Z,7.60
2022-11-17T21:56:32.880Z,7.60
2022-11-17T21:59:20.470Z,7.50
2022-11-17T22:01:47.685Z,7.60
2022-11-17T22:04:15.965Z,7.50
2022-11-17T22:06:43.438Z,7.50
2022-11-17T22:09:10.808Z,7.60
2022-11-17T22:11:39.004Z,7.60
2022-11-17T22:14:13.304Z,7.70
2022-11-17T22:16:46.790Z,7.70
2022-11-17T22:19:17.147Z,7.80
2022-11-17T22:21:47.051Z,7.90
2022-11-17T22:24:14.784Z,7.90
2022-11-17T22:26:44.770Z,8.00
2022-11-17T22:29:18.789Z,8.10
2022-11-17T22:31:49.157Z,8.20
2022-11-17T22:34:17.881Z,8.30
2022-11-17T22:36:45.445Z,8.40
2022-11-17T22:39:12.781Z,8.50
2022-11-17T22:41:40.175Z,8.50
2022-11-17T22:44:07.726Z,8.60
2022-11-17T22:46:36.143Z,8.60
2022-11-17T22:49:03.411Z,8.70
2022-11-17T22:51:49.175Z,8.70
2022-11-17T22:54:16.782Z,8.80
2022-11-17T22:56:44.036Z,8.80
2022-11-17T22:59:11.277Z,8.90
2022-11-17T23:01:38.668Z,8.90
2022-11-17T23:04:07.116Z,9.00
2022-11-17T23:06:34.472Z,9.00
2022-11-17T23:09:01.878Z,9.00
2022-11-17T23:11:37.052Z,9.00
2022-11-17T23:14:07.882Z,9.00
2022-11-17T23:16:37.654Z,9.00
2022-11-17T23:19:06.073Z,9.00
2022-11-17T23:21:33.594Z,9.00
2022-11-17T23:24:01.192Z,8.90
2022-11-17T23:26:28.430Z,8.90
2022-11-17T23:28:55.739Z,8.90
2022-11-17T23:31:23.057Z,9.00
2022-11-17T23:33:50.374Z,9.00
2022-11-17T23:36:21.506Z,9.00
2022-11-17T23:38:50.211Z,9.00
2022-11-17T23:41:21.009Z,9.00
2022-11-17T23:43:55.242Z,9.00
2022-11-17T23:46:25.831Z,9.00
2022-11-17T23:48:54.530Z,9.00
2022-11-17T23:51:24.217Z,9.00
2022-11-17T23:53:51.773Z,9.00
2022-11-17T23:56:21.613Z,9.00
2022-11-17T23:58:50.663Z,9.00
